aviador You're here:

EIKN Decoded Metar

CONNAUGHT in IRELAND
Report Time2018-04-21 07:30:00
UTC Time2018-04-21 07:59:45
Flight Rules mvfr MVFR
Wind160° at 06 kt
W.Decomp.*RWY 09: 1.5 kt HW 5.8 kt RCW
W.Rank160° ranks 15
Current wind is below 160° avg. (9.2)
Visibility5000 m
Phenomena:Vicinity Fog
Clouds:Scattered 001 Hf
CeilingNone
Temp05°C (ISA -10)
Dew Point05°C (100% RH)
AAT1.7°C
QNH1019 hPa
Density Alt-1,033 ft
Elevation210 ft
Report Wrong Elevation
Raw Report
METAR EIKN 210730Z 16006KT 5000 VCFG SCT001 05/05 Q1019 TEMPO 3000=

Extra information for EIKN:More info

Metar Taf Metar & Taf Last 4 Metars F.Rules Stats Wind Profile Meteogram Temp Stats Airport Information Weather charts Add Link Nearby VenuesMetar ALERT Operation Metar Decoded Social comments